Fort Assiniboine, Canada
Current Conditions -  °F | °C
As of 3:00 PM on Sunday 23 Nov 2014 (Local Time) from CYZU Reporting Station
Overcast Overcast  
Wind Chill:   Ceiling: 8000
Heat Index: 18°   Visibility: 15mi
Dew Point: 14°   Wind: 8mph
Humidity: 86%   Direction: 300°WNW
Pressure: 29.67"   Gusts: NA
Location:  54.33°N, 114.77°W
Report Text: CYZU 232200Z 30007KT 15SM BKN080 OVC130 M08/M10 A2967 RMK AC7AC1 SLP097
Loading
Personal Weather Stations






























Interactive Weather Map New forecast layout! Learn more

10-Day Weather Forecast

Advertisements
Track Severe Weather on mobile